sensor_id;sensor_type;location;lat;lon;timestamp;temperature;humidity
58517;DHT22;44308;50.810;0.284;2022-08-23T00:00:44;19.10;99.90
58517;DHT22;44308;50.810;0.284;2022-08-23T00:03:11;19.10;99.90
58517;DHT22;44308;50.810;0.284;2022-08-23T00:05:39;19.10;99.90
58517;DHT22;44308;50.810;0.284;2022-08-23T00:08:05;19.10;99.90
58517;DHT22;44308;50.810;0.284;2022-08-23T00:10:31;19.00;99.90
58517;DHT22;44308;50.810;0.284;2022-08-23T00:12:57;18.90;99.90
58517;DHT22;44308;50.810;0.284;2022-08-23T00:15:24;18.90;99.90
58517;DHT22;44308;50.810;0.284;2022-08-23T00:17:50;18.90;99.90
58517;DHT22;44308;50.810;0.284;2022-08-23T00:20:17;18.90;99.90
58517;DHT22;44308;50.810;0.284;2022-08-23T00:22:44;18.90;99.90
58517;DHT22;44308;50.810;0.284;2022-08-23T00:25:14;18.90;99.90
58517;DHT22;44308;50.810;0.284;2022-08-23T00:27:40;18.90;99.90
58517;DHT22;44308;50.810;0.284;2022-08-23T00:30:08;18.90;99.90
58517;DHT22;44308;50.810;0.284;2022-08-23T00:32:36;18.90;99.90
58517;DHT22;44308;50.810;0.284;2022-08-23T00:35:04;18.90;99.90
58517;DHT22;44308;50.810;0.284;2022-08-23T00:37:31;19.00;99.90
58517;DHT22;44308;50.810;0.284;2022-08-23T00:39:57;19.00;99.90
58517;DHT22;44308;50.810;0.284;2022-08-23T00:42:42;19.00;99.90
58517;DHT22;44308;50.810;0.284;2022-08-23T00:45:41;19.00;99.90
58517;DHT22;44308;50.810;0.284;2022-08-23T00:48:26;19.00;99.90
58517;DHT22;44308;50.810;0.284;2022-08-23T00:51:16;19.10;99.90
58517;DHT22;44308;50.810;0.284;2022-08-23T00:53:48;19.10;99.90
58517;DHT22;44308;50.810;0.284;2022-08-23T00:56:17;19.10;99.90
58517;DHT22;44308;50.810;0.284;2022-08-23T00:58:44;19.10;99.90
58517;DHT22;44308;50.810;0.284;2022-08-23T01:01:11;19.10;99.90
58517;DHT22;44308;50.810;0.284;2022-08-23T01:03:40;19.10;99.90
58517;DHT22;44308;50.810;0.284;2022-08-23T01:08:56;19.10;99.90
58517;DHT22;44308;50.810;0.284;2022-08-23T01:11:27;19.10;99.90
58517;DHT22;44308;50.810;0.284;2022-08-23T01:13:58;19.10;99.90
58517;DHT22;44308;50.810;0.284;2022-08-23T01:16:30;19.10;99.90
58517;DHT22;44308;50.810;0.284;2022-08-23T01:18:58;19.10;99.90
58517;DHT22;44308;50.810;0.284;2022-08-23T01:21:31;19.10;99.90
58517;DHT22;44308;50.810;0.284;2022-08-23T01:24:00;19.10;99.90
58517;DHT22;44308;50.810;0.284;2022-08-23T01:26:28;19.10;99.90
58517;DHT22;44308;50.810;0.284;2022-08-23T01:29:01;19.10;99.90
58517;DHT22;44308;50.810;0.284;2022-08-23T01:31:28;19.10;99.90
58517;DHT22;44308;50.810;0.284;2022-08-23T01:33:58;19.10;99.90
58517;DHT22;44308;50.810;0.284;2022-08-23T01:36:25;19.10;99.90
58517;DHT22;44308;50.810;0.284;2022-08-23T01:38:51;19.10;99.90
58517;DHT22;44308;50.810;0.284;2022-08-23T01:41:17;19.10;99.90
58517;DHT22;44308;50.810;0.284;2022-08-23T01:43:45;19.10;99.90
58517;DHT22;44308;50.810;0.284;2022-08-23T01:46:13;19.10;99.90
58517;DHT22;44308;50.810;0.284;2022-08-23T01:48:39;19.10;99.90
58517;DHT22;44308;50.810;0.284;2022-08-23T01:51:05;19.10;99.90
58517;DHT22;44308;50.810;0.284;2022-08-23T01:53:32;19.10;99.90
58517;DHT22;44308;50.810;0.284;2022-08-23T01:55:59;19.10;99.90
58517;DHT22;44308;50.810;0.284;2022-08-23T01:58:27;19.10;99.90
58517;DHT22;44308;50.810;0.284;2022-08-23T02:00:53;19.10;99.90
58517;DHT22;44308;50.810;0.284;2022-08-23T02:03:19;19.10;99.90
58517;DHT22;44308;50.810;0.284;2022-08-23T02:05:46;19.10;99.90
58517;DHT22;44308;50.810;0.284;2022-08-23T02:08:12;19.10;99.90
58517;DHT22;44308;50.810;0.284;2022-08-23T02:10:57;19.10;99.90
58517;DHT22;44308;50.810;0.284;2022-08-23T02:13:23;19.10;99.90
58517;DHT22;44308;50.810;0.284;2022-08-23T02:15:49;19.10;99.90
58517;DHT22;44308;50.810;0.284;2022-08-23T02:18:16;19.10;99.90
58517;DHT22;44308;50.810;0.284;2022-08-23T02:20:48;19.10;99.90
58517;DHT22;44308;50.810;0.284;2022-08-23T02:23:15;19.10;99.90
58517;DHT22;44308;50.810;0.284;2022-08-23T02:25:45;19.20;99.90
58517;DHT22;44308;50.810;0.284;2022-08-23T02:28:11;19.20;99.90
58517;DHT22;44308;50.810;0.284;2022-08-23T02:30:36;19.20;99.90
58517;DHT22;44308;50.810;0.284;2022-08-23T02:33:02;19.20;99.90
58517;DHT22;44308;50.810;0.284;2022-08-23T02:35:28;19.10;99.90
58517;DHT22;44308;50.810;0.284;2022-08-23T02:37:54;19.20;99.90
58517;DHT22;44308;50.810;0.284;2022-08-23T02:40:19;19.20;99.90
58517;DHT22;44308;50.810;0.284;2022-08-23T02:42:46;19.20;99.90
58517;DHT22;44308;50.810;0.284;2022-08-23T02:45:13;19.10;99.90
58517;DHT22;44308;50.810;0.284;2022-08-23T02:47:39;19.10;99.90
58517;DHT22;44308;50.810;0.284;2022-08-23T02:50:06;19.10;99.90
58517;DHT22;44308;50.810;0.284;2022-08-23T02:52:33;19.10;99.90
58517;DHT22;44308;50.810;0.284;2022-08-23T02:55:00;19.10;99.90
58517;DHT22;44308;50.810;0.284;2022-08-23T02:57:26;19.10;99.90
58517;DHT22;44308;50.810;0.284;2022-08-23T02:59:51;19.10;99.90
58517;DHT22;44308;50.810;0.284;2022-08-23T03:02:18;19.10;99.90
58517;DHT22;44308;50.810;0.284;2022-08-23T03:04:46;19.10;99.90
58517;DHT22;44308;50.810;0.284;2022-08-23T03:07:11;19.00;99.90
58517;DHT22;44308;50.810;0.284;2022-08-23T03:09:38;19.00;99.90
58517;DHT22;44308;50.810;0.284;2022-08-23T03:12:04;19.00;99.90
58517;DHT22;44308;50.810;0.284;2022-08-23T03:14:31;19.00;99.90
58517;DHT22;44308;50.810;0.284;2022-08-23T03:16:57;19.00;99.90
58517;DHT22;44308;50.810;0.284;2022-08-23T03:19:23;18.90;99.90
58517;DHT22;44308;50.810;0.284;2022-08-23T03:21:49;18.90;99.90
58517;DHT22;44308;50.810;0.284;2022-08-23T03:24:16;18.90;99.90
58517;DHT22;44308;50.810;0.284;2022-08-23T03:26:43;18.90;99.90
58517;DHT22;44308;50.810;0.284;2022-08-23T03:29:11;18.90;99.90
58517;DHT22;44308;50.810;0.284;2022-08-23T03:31:37;18.90;99.90
58517;DHT22;44308;50.810;0.284;2022-08-23T03:34:04;18.90;99.90
58517;DHT22;44308;50.810;0.284;2022-08-23T03:36:30;18.90;99.90
58517;DHT22;44308;50.810;0.284;2022-08-23T03:38:56;18.80;99.90
58517;DHT22;44308;50.810;0.284;2022-08-23T03:41:22;18.80;99.90
58517;DHT22;44308;50.810;0.284;2022-08-23T03:43:50;18.80;99.90
58517;DHT22;44308;50.810;0.284;2022-08-23T03:46:17;18.80;99.90
58517;DHT22;44308;50.810;0.284;2022-08-23T03:48:55;18.80;99.90
58517;DHT22;44308;50.810;0.284;2022-08-23T03:51:22;18.80;99.90
58517;DHT22;44308;50.810;0.284;2022-08-23T03:53:52;18.80;99.90
58517;DHT22;44308;50.810;0.284;2022-08-23T03:56:30;18.80;99.90
58517;DHT22;44308;50.810;0.284;2022-08-23T03:58:59;18.80;99.90
58517;DHT22;44308;50.810;0.284;2022-08-23T04:01:25;18.80;99.90
58517;DHT22;44308;50.810;0.284;2022-08-23T04:03:51;18.80;99.90
58517;DHT22;44308;50.810;0.284;2022-08-23T04:06:17;18.80;99.90
58517;DHT22;44308;50.810;0.284;2022-08-23T04:08:44;18.80;99.90
58517;DHT22;44308;50.810;0.284;2022-08-23T04:11:11;18.80;99.90
58517;DHT22;44308;50.810;0.284;2022-08-23T04:13:40;18.80;99.90
58517;DHT22;44308;50.810;0.284;2022-08-23T04:16:08;18.80;99.90
58517;DHT22;44308;50.810;0.284;2022-08-23T04:18:34;18.80;99.90
58517;DHT22;44308;50.810;0.284;2022-08-23T04:21:04;18.80;99.90
58517;DHT22;44308;50.810;0.284;2022-08-23T04:27:11;18.80;99.90
58517;DHT22;44308;50.810;0.284;2022-08-23T04:29:38;18.80;99.90
58517;DHT22;44308;50.810;0.284;2022-08-23T04:32:05;18.80;99.90
58517;DHT22;44308;50.810;0.284;2022-08-23T04:34:52;18.80;99.90
58517;DHT22;44308;50.810;0.284;2022-08-23T04:37:18;18.80;99.90
58517;DHT22;44308;50.810;0.284;2022-08-23T04:39:44;18.80;99.90
58517;DHT22;44308;50.810;0.284;2022-08-23T04:42:36;18.80;99.90
58517;DHT22;44308;50.810;0.284;2022-08-23T04:45:02;18.80;99.90
58517;DHT22;44308;50.810;0.284;2022-08-23T04:47:28;18.80;99.90
58517;DHT22;44308;50.810;0.284;2022-08-23T04:49:54;18.80;99.90
58517;DHT22;44308;50.810;0.284;2022-08-23T04:52:22;18.80;99.90
58517;DHT22;44308;50.810;0.284;2022-08-23T04:54:48;18.80;99.90
58517;DHT22;44308;50.810;0.284;2022-08-23T04:57:14;18.80;99.90
58517;DHT22;44308;50.810;0.284;2022-08-23T04:59:40;18.70;99.90
58517;DHT22;44308;50.810;0.284;2022-08-23T05:02:06;18.70;99.90
58517;DHT22;44308;50.810;0.284;2022-08-23T05:04:31;18.70;99.90
58517;DHT22;44308;50.810;0.284;2022-08-23T05:06:57;18.70;99.90
58517;DHT22;44308;50.810;0.284;2022-08-23T05:09:23;18.60;99.90
58517;DHT22;44308;50.810;0.284;2022-08-23T05:11:52;18.60;99.90
58517;DHT22;44308;50.810;0.284;2022-08-23T05:14:19;18.60;99.90
58517;DHT22;44308;50.810;0.284;2022-08-23T05:16:46;18.60;99.90
58517;DHT22;44308;50.810;0.284;2022-08-23T05:19:11;18.60;99.90
58517;DHT22;44308;50.810;0.284;2022-08-23T05:21:37;18.60;99.90
58517;DHT22;44308;50.810;0.284;2022-08-23T05:24:23;18.60;99.90
58517;DHT22;44308;50.810;0.284;2022-08-23T05:26:50;18.60;99.90
58517;DHT22;44308;50.810;0.284;2022-08-23T05:29:16;18.50;99.90
58517;DHT22;44308;50.810;0.284;2022-08-23T05:31:41;18.50;99.90
58517;DHT22;44308;50.810;0.284;2022-08-23T05:34:08;18.50;99.90
58517;DHT22;44308;50.810;0.284;2022-08-23T05:36:34;18.50;99.90
58517;DHT22;44308;50.810;0.284;2022-08-23T05:39:00;18.50;99.90
58517;DHT22;44308;50.810;0.284;2022-08-23T05:41:26;18.50;99.90
58517;DHT22;44308;50.810;0.284;2022-08-23T05:43:54;18.50;99.90
58517;DHT22;44308;50.810;0.284;2022-08-23T05:46:20;18.50;99.90
58517;DHT22;44308;50.810;0.284;2022-08-23T05:48:48;18.50;99.90
58517;DHT22;44308;50.810;0.284;2022-08-23T05:51:19;18.50;99.90
58517;DHT22;44308;50.810;0.284;2022-08-23T05:54:06;18.60;99.90
58517;DHT22;44308;50.810;0.284;2022-08-23T05:56:40;18.60;99.90
58517;DHT22;44308;50.810;0.284;2022-08-23T05:59:14;18.60;99.90
58517;DHT22;44308;50.810;0.284;2022-08-23T06:01:41;18.60;99.90
58517;DHT22;44308;50.810;0.284;2022-08-23T06:04:09;18.60;99.90
58517;DHT22;44308;50.810;0.284;2022-08-23T06:06:37;18.60;99.90
58517;DHT22;44308;50.810;0.284;2022-08-23T06:09:05;18.70;99.90
58517;DHT22;44308;50.810;0.284;2022-08-23T06:11:30;18.70;99.90
58517;DHT22;44308;50.810;0.284;2022-08-23T06:14:16;18.70;99.90
58517;DHT22;44308;50.810;0.284;2022-08-23T06:16:47;18.80;99.90
58517;DHT22;44308;50.810;0.284;2022-08-23T06:19:17;18.80;99.90
58517;DHT22;44308;50.810;0.284;2022-08-23T06:21:43;18.80;99.90
58517;DHT22;44308;50.810;0.284;2022-08-23T06:24:11;18.90;99.90
58517;DHT22;44308;50.810;0.284;2022-08-23T06:26:40;18.80;99.90
58517;DHT22;44308;50.810;0.284;2022-08-23T06:29:14;18.90;99.90
58517;DHT22;44308;50.810;0.284;2022-08-23T06:31:42;18.90;99.90
58517;DHT22;44308;50.810;0.284;2022-08-23T06:34:32;18.90;99.90
58517;DHT22;44308;50.810;0.284;2022-08-23T06:37:03;18.90;99.90
58517;DHT22;44308;50.810;0.284;2022-08-23T06:39:30;19.00;99.90
58517;DHT22;44308;50.810;0.284;2022-08-23T06:41:59;19.00;99.90
58517;DHT22;44308;50.810;0.284;2022-08-23T06:44:27;19.20;99.90
58517;DHT22;44308;50.810;0.284;2022-08-23T06:46:54;19.30;99.90
58517;DHT22;44308;50.810;0.284;2022-08-23T06:49:23;19.40;99.90
58517;DHT22;44308;50.810;0.284;2022-08-23T06:51:52;19.50;99.90
58517;DHT22;44308;50.810;0.284;2022-08-23T06:54:23;19.60;99.90
58517;DHT22;44308;50.810;0.284;2022-08-23T06:56:50;19.60;99.90
58517;DHT22;44308;50.810;0.284;2022-08-23T06:59:17;19.60;99.90
58517;DHT22;44308;50.810;0.284;2022-08-23T07:01:46;19.90;99.90
58517;DHT22;44308;50.810;0.284;2022-08-23T07:04:17;20.20;99.90
58517;DHT22;44308;50.810;0.284;2022-08-23T07:06:43;20.70;99.90
58517;DHT22;44308;50.810;0.284;2022-08-23T07:09:09;20.90;99.90
58517;DHT22;44308;50.810;0.284;2022-08-23T07:11:35;20.90;99.90
58517;DHT22;44308;50.810;0.284;2022-08-23T07:14:07;20.90;99.90
58517;DHT22;44308;50.810;0.284;2022-08-23T07:16:40;21.00;99.90
58517;DHT22;44308;50.810;0.284;2022-08-23T07:19:06;21.00;99.90
58517;DHT22;44308;50.810;0.284;2022-08-23T07:21:34;21.00;99.90
58517;DHT22;44308;50.810;0.284;2022-08-23T07:24:02;20.90;99.90
58517;DHT22;44308;50.810;0.284;2022-08-23T07:26:28;20.80;99.90
58517;DHT22;44308;50.810;0.284;2022-08-23T07:28:54;20.70;99.90
58517;DHT22;44308;50.810;0.284;2022-08-23T07:31:26;21.00;99.90
58517;DHT22;44308;50.810;0.284;2022-08-23T07:33:55;21.80;99.90
58517;DHT22;44308;50.810;0.284;2022-08-23T07:36:24;22.80;99.90
58517;DHT22;44308;50.810;0.284;2022-08-23T07:38:53;24.00;99.90
58517;DHT22;44308;50.810;0.284;2022-08-23T07:41:19;24.10;99.90
58517;DHT22;44308;50.810;0.284;2022-08-23T07:46:50;24.30;99.90
58517;DHT22;44308;50.810;0.284;2022-08-23T07:49:16;25.10;99.90
58517;DHT22;44308;50.810;0.284;2022-08-23T07:51:49;25.90;99.90
58517;DHT22;44308;50.810;0.284;2022-08-23T07:54:17;26.70;99.90
58517;DHT22;44308;50.810;0.284;2022-08-23T07:56:44;27.20;99.90
58517;DHT22;44308;50.810;0.284;2022-08-23T07:59:11;27.20;99.90
58517;DHT22;44308;50.810;0.284;2022-08-23T08:01:39;26.90;99.90
58517;DHT22;44308;50.810;0.284;2022-08-23T08:04:06;26.80;99.90
58517;DHT22;44308;50.810;0.284;2022-08-23T08:06:42;26.80;99.90
58517;DHT22;44308;50.810;0.284;2022-08-23T08:09:11;26.20;99.90
58517;DHT22;44308;50.810;0.284;2022-08-23T08:11:40;25.60;99.90
58517;DHT22;44308;50.810;0.284;2022-08-23T08:14:08;24.80;99.90
58517;DHT22;44308;50.810;0.284;2022-08-23T08:16:38;24.00;99.90
58517;DHT22;44308;50.810;0.284;2022-08-23T08:19:09;23.50;99.90
58517;DHT22;44308;50.810;0.284;2022-08-23T08:21:36;23.40;99.90
58517;DHT22;44308;50.810;0.284;2022-08-23T08:24:05;23.30;99.90
58517;DHT22;44308;50.810;0.284;2022-08-23T08:26:31;23.30;99.90
58517;DHT22;44308;50.810;0.284;2022-08-23T08:28:57;23.30;99.90
58517;DHT22;44308;50.810;0.284;2022-08-23T08:31:24;23.50;99.90
58517;DHT22;44308;50.810;0.284;2022-08-23T08:33:51;23.90;99.90
58517;DHT22;44308;50.810;0.284;2022-08-23T08:39:00;25.00;99.90
58517;DHT22;44308;50.810;0.284;2022-08-23T08:47:13;25.40;99.90
58517;DHT22;44308;50.810;0.284;2022-08-23T08:49:48;25.20;99.90
58517;DHT22;44308;50.810;0.284;2022-08-23T08:52:36;25.10;99.90
58517;DHT22;44308;50.810;0.284;2022-08-23T08:55:11;24.90;99.90
58517;DHT22;44308;50.810;0.284;2022-08-23T08:57:41;25.10;99.90
58517;DHT22;44308;50.810;0.284;2022-08-23T09:00:20;25.10;99.90
58517;DHT22;44308;50.810;0.284;2022-08-23T09:02:46;25.10;99.90
58517;DHT22;44308;50.810;0.284;2022-08-23T09:05:26;25.20;99.90
58517;DHT22;44308;50.810;0.284;2022-08-23T09:08:58;24.90;99.90
58517;DHT22;44308;50.810;0.284;2022-08-23T09:13:49;25.60;99.90
58517;DHT22;44308;50.810;0.284;2022-08-23T09:18:50;25.50;99.90
58517;DHT22;44308;50.810;0.284;2022-08-23T09:21:16;24.70;99.90
58517;DHT22;44308;50.810;0.284;2022-08-23T09:24:03;24.30;99.90
58517;DHT22;44308;50.810;0.284;2022-08-23T09:26:30;24.00;99.90
58517;DHT22;44308;50.810;0.284;2022-08-23T09:29:00;23.90;99.90
58517;DHT22;44308;50.810;0.284;2022-08-23T09:31:42;24.00;99.90
58517;DHT22;44308;50.810;0.284;2022-08-23T09:34:14;23.80;99.90
58517;DHT22;44308;50.810;0.284;2022-08-23T09:36:41;23.40;99.90
58517;DHT22;44308;50.810;0.284;2022-08-23T09:41:50;23.60;99.90
58517;DHT22;44308;50.810;0.284;2022-08-23T09:44:35;23.50;99.90
58517;DHT22;44308;50.810;0.284;2022-08-23T09:47:12;23.50;99.90
58517;DHT22;44308;50.810;0.284;2022-08-23T09:49:40;23.50;99.90
58517;DHT22;44308;50.810;0.284;2022-08-23T09:54:40;23.40;99.90
58517;DHT22;44308;50.810;0.284;2022-08-23T09:57:08;23.20;99.90
58517;DHT22;44308;50.810;0.284;2022-08-23T09:59:47;23.30;99.90
58517;DHT22;44308;50.810;0.284;2022-08-23T10:05:04;23.80;99.90
58517;DHT22;44308;50.810;0.284;2022-08-23T10:07:38;23.80;99.90
58517;DHT22;44308;50.810;0.284;2022-08-23T10:13:03;23.80;99.90
58517;DHT22;44308;50.810;0.284;2022-08-23T10:24:13;23.40;99.90
58517;DHT22;44308;50.810;0.284;2022-08-23T10:26:50;23.60;99.90
58517;DHT22;44308;50.810;0.284;2022-08-23T10:29:46;23.40;99.90
58517;DHT22;44308;50.810;0.284;2022-08-23T10:37:25;23.40;99.90
58517;DHT22;44308;50.810;0.284;2022-08-23T10:42:57;23.30;99.90
58517;DHT22;44308;50.810;0.284;2022-08-23T10:45:33;23.40;99.90
58517;DHT22;44308;50.810;0.284;2022-08-23T10:53:16;24.90;99.90
58517;DHT22;44308;50.810;0.284;2022-08-23T10:55:55;24.90;99.90
58517;DHT22;44308;50.810;0.284;2022-08-23T11:01:43;24.20;99.90
58517;DHT22;44308;50.810;0.284;2022-08-23T11:07:29;24.70;99.90
58517;DHT22;44308;50.810;0.284;2022-08-23T11:10:16;25.20;99.90
58517;DHT22;44308;50.810;0.284;2022-08-23T11:13:06;24.50;99.90
58517;DHT22;44308;50.810;0.284;2022-08-23T11:16:04;24.70;99.90
58517;DHT22;44308;50.810;0.284;2022-08-23T11:18:40;24.50;99.90
58517;DHT22;44308;50.810;0.284;2022-08-23T11:21:39;24.60;99.90
58517;DHT22;44308;50.810;0.284;2022-08-23T11:31:40;24.60;99.90
58517;DHT22;44308;50.810;0.284;2022-08-23T11:34:24;24.70;99.90
58517;DHT22;44308;50.810;0.284;2022-08-23T11:44:52;24.10;99.90
58517;DHT22;44308;50.810;0.284;2022-08-23T11:47:38;23.70;99.90
58517;DHT22;44308;50.810;0.284;2022-08-23T11:50:34;23.70;99.90
58517;DHT22;44308;50.810;0.284;2022-08-23T11:58:22;23.40;99.90
58517;DHT22;44308;50.810;0.284;2022-08-23T12:03:30;23.00;99.90
58517;DHT22;44308;50.810;0.284;2022-08-23T12:08:55;22.80;99.90
58517;DHT22;44308;50.810;0.284;2022-08-23T12:11:24;22.60;99.90
58517;DHT22;44308;50.810;0.284;2022-08-23T12:14:01;22.70;99.90
58517;DHT22;44308;50.810;0.284;2022-08-23T12:16:37;22.50;99.90
58517;DHT22;44308;50.810;0.284;2022-08-23T12:19:05;22.60;99.90
58517;DHT22;44308;50.810;0.284;2022-08-23T12:21:47;22.90;99.90
58517;DHT22;44308;50.810;0.284;2022-08-23T12:24:30;22.60;99.90
58517;DHT22;44308;50.810;0.284;2022-08-23T12:27:32;22.60;99.90
58517;DHT22;44308;50.810;0.284;2022-08-23T12:41:30;22.40;99.90
58517;DHT22;44308;50.810;0.284;2022-08-23T12:44:17;22.40;99.90
58517;DHT22;44308;50.810;0.284;2022-08-23T12:46:46;22.80;99.90
58517;DHT22;44308;50.810;0.284;2022-08-23T12:49:31;23.10;99.90
58517;DHT22;44308;50.810;0.284;2022-08-23T12:52:01;23.30;99.90
58517;DHT22;44308;50.810;0.284;2022-08-23T12:54:50;23.00;99.90
58517;DHT22;44308;50.810;0.284;2022-08-23T12:57:33;23.30;99.90
58517;DHT22;44308;50.810;0.284;2022-08-23T13:03:44;23.30;99.90
58517;DHT22;44308;50.810;0.284;2022-08-23T13:06:05;23.40;99.90
58517;DHT22;44308;50.810;0.284;2022-08-23T13:08:58;23.40;99.90
58517;DHT22;44308;50.810;0.284;2022-08-23T13:11:28;23.40;99.90
58517;DHT22;44308;50.810;0.284;2022-08-23T13:13:57;23.30;99.90
58517;DHT22;44308;50.810;0.284;2022-08-23T13:16:42;23.40;99.90
58517;DHT22;44308;50.810;0.284;2022-08-23T13:21:36;23.10;99.90
58517;DHT22;44308;50.810;0.284;2022-08-23T13:24:27;23.00;99.90
58517;DHT22;44308;50.810;0.284;2022-08-23T13:27:25;23.20;99.90
58517;DHT22;44308;50.810;0.284;2022-08-23T13:32:43;23.00;99.90
58517;DHT22;44308;50.810;0.284;2022-08-23T13:43:26;23.20;99.90
58517;DHT22;44308;50.810;0.284;2022-08-23T13:45:54;23.30;99.90
58517;DHT22;44308;50.810;0.284;2022-08-23T13:48:30;23.60;99.90
58517;DHT22;44308;50.810;0.284;2022-08-23T13:51:19;23.60;99.90
58517;DHT22;44308;50.810;0.284;2022-08-23T13:53:49;23.80;99.90
58517;DHT22;44308;50.810;0.284;2022-08-23T13:56:15;24.00;99.90
58517;DHT22;44308;50.810;0.284;2022-08-23T13:58:41;24.00;99.90
58517;DHT22;44308;50.810;0.284;2022-08-23T14:01:18;24.10;99.90
58517;DHT22;44308;50.810;0.284;2022-08-23T14:03:45;24.00;99.90
58517;DHT22;44308;50.810;0.284;2022-08-23T14:06:11;23.90;99.90
58517;DHT22;44308;50.810;0.284;2022-08-23T14:08:37;23.80;99.90
58517;DHT22;44308;50.810;0.284;2022-08-23T14:11:05;23.80;99.90
58517;DHT22;44308;50.810;0.284;2022-08-23T14:13:32;23.60;99.90
58517;DHT22;44308;50.810;0.284;2022-08-23T14:16:04;23.60;99.90
58517;DHT22;44308;50.810;0.284;2022-08-23T14:18:31;23.50;99.90
58517;DHT22;44308;50.810;0.284;2022-08-23T14:21:00;23.70;99.90
58517;DHT22;44308;50.810;0.284;2022-08-23T14:23:25;24.00;99.90
58517;DHT22;44308;50.810;0.284;2022-08-23T14:25:54;24.40;99.90
58517;DHT22;44308;50.810;0.284;2022-08-23T14:28:23;24.40;99.90
58517;DHT22;44308;50.810;0.284;2022-08-23T14:30:49;24.50;99.90
58517;DHT22;44308;50.810;0.284;2022-08-23T14:33:15;24.70;99.90
58517;DHT22;44308;50.810;0.284;2022-08-23T14:35:41;24.40;99.90
58517;DHT22;44308;50.810;0.284;2022-08-23T14:38:08;24.40;99.90
58517;DHT22;44308;50.810;0.284;2022-08-23T14:40:35;24.30;99.90
58517;DHT22;44308;50.810;0.284;2022-08-23T14:43:00;24.20;99.90
58517;DHT22;44308;50.810;0.284;2022-08-23T14:45:28;24.10;99.90
58517;DHT22;44308;50.810;0.284;2022-08-23T14:47:53;24.00;99.90
58517;DHT22;44308;50.810;0.284;2022-08-23T14:50:19;24.10;99.90
58517;DHT22;44308;50.810;0.284;2022-08-23T14:52:46;24.30;99.90
58517;DHT22;44308;50.810;0.284;2022-08-23T14:55:12;24.20;99.90
58517;DHT22;44308;50.810;0.284;2022-08-23T14:57:39;24.00;99.90
58517;DHT22;44308;50.810;0.284;2022-08-23T15:00:09;23.80;99.90
58517;DHT22;44308;50.810;0.284;2022-08-23T15:02:38;23.90;99.90
58517;DHT22;44308;50.810;0.284;2022-08-23T15:05:07;23.70;99.90
58517;DHT22;44308;50.810;0.284;2022-08-23T15:07:33;23.60;99.90
58517;DHT22;44308;50.810;0.284;2022-08-23T15:10:01;23.60;99.90
58517;DHT22;44308;50.810;0.284;2022-08-23T15:12:27;23.80;99.90
58517;DHT22;44308;50.810;0.284;2022-08-23T15:14:53;23.80;99.90
58517;DHT22;44308;50.810;0.284;2022-08-23T15:17:19;23.60;99.90
58517;DHT22;44308;50.810;0.284;2022-08-23T15:19:44;23.60;99.90
58517;DHT22;44308;50.810;0.284;2022-08-23T15:22:10;23.60;99.90
58517;DHT22;44308;50.810;0.284;2022-08-23T15:24:36;23.60;99.90
58517;DHT22;44308;50.810;0.284;2022-08-23T15:27:04;23.60;99.90
58517;DHT22;44308;50.810;0.284;2022-08-23T15:29:30;23.50;99.90
58517;DHT22;44308;50.810;0.284;2022-08-23T15:31:55;23.50;99.90
58517;DHT22;44308;50.810;0.284;2022-08-23T15:34:22;23.20;99.90
58517;DHT22;44308;50.810;0.284;2022-08-23T15:36:48;23.20;99.90
58517;DHT22;44308;50.810;0.284;2022-08-23T15:39:15;23.30;99.90
58517;DHT22;44308;50.810;0.284;2022-08-23T15:41:41;23.30;99.90
58517;DHT22;44308;50.810;0.284;2022-08-23T15:44:09;23.30;99.90
58517;DHT22;44308;50.810;0.284;2022-08-23T15:46:36;23.20;99.90
58517;DHT22;44308;50.810;0.284;2022-08-23T15:49:22;23.30;99.90
58517;DHT22;44308;50.810;0.284;2022-08-23T15:51:50;23.20;99.90
58517;DHT22;44308;50.810;0.284;2022-08-23T15:54:19;23.30;99.90
58517;DHT22;44308;50.810;0.284;2022-08-23T15:56:47;23.10;99.90
58517;DHT22;44308;50.810;0.284;2022-08-23T15:59:16;23.00;99.90
58517;DHT22;44308;50.810;0.284;2022-08-23T16:01:42;23.00;99.90
58517;DHT22;44308;50.810;0.284;2022-08-23T16:04:09;22.80;99.90
58517;DHT22;44308;50.810;0.284;2022-08-23T16:06:37;22.70;99.90
58517;DHT22;44308;50.810;0.284;2022-08-23T16:09:05;22.50;99.90
58517;DHT22;44308;50.810;0.284;2022-08-23T16:11:35;22.40;99.90
58517;DHT22;44308;50.810;0.284;2022-08-23T16:14:21;22.30;99.90
58517;DHT22;44308;50.810;0.284;2022-08-23T16:16:48;22.10;99.90
58517;DHT22;44308;50.810;0.284;2022-08-23T16:19:14;22.10;99.90
58517;DHT22;44308;50.810;0.284;2022-08-23T16:21:40;22.10;99.90
58517;DHT22;44308;50.810;0.284;2022-08-23T16:24:08;21.90;99.90
58517;DHT22;44308;50.810;0.284;2022-08-23T16:26:39;21.90;99.90
58517;DHT22;44308;50.810;0.284;2022-08-23T16:29:09;21.90;99.90
58517;DHT22;44308;50.810;0.284;2022-08-23T16:31:35;21.80;99.90
58517;DHT22;44308;50.810;0.284;2022-08-23T16:34:12;21.90;99.90
58517;DHT22;44308;50.810;0.284;2022-08-23T16:36:41;21.90;99.90
58517;DHT22;44308;50.810;0.284;2022-08-23T16:39:08;22.00;99.90
58517;DHT22;44308;50.810;0.284;2022-08-23T16:41:34;22.10;99.90
58517;DHT22;44308;50.810;0.284;2022-08-23T16:46:50;22.10;99.90
58517;DHT22;44308;50.810;0.284;2022-08-23T16:49:16;22.10;99.90
58517;DHT22;44308;50.810;0.284;2022-08-23T16:51:44;22.20;99.90
58517;DHT22;44308;50.810;0.284;2022-08-23T16:54:11;22.10;99.90
58517;DHT22;44308;50.810;0.284;2022-08-23T16:56:41;22.00;99.90
58517;DHT22;44308;50.810;0.284;2022-08-23T16:59:09;22.10;99.90
58517;DHT22;44308;50.810;0.284;2022-08-23T17:01:47;21.90;99.90
58517;DHT22;44308;50.810;0.284;2022-08-23T17:04:33;22.10;99.90
58517;DHT22;44308;50.810;0.284;2022-08-23T17:06:59;22.20;99.90
58517;DHT22;44308;50.810;0.284;2022-08-23T17:09:28;22.30;99.90
58517;DHT22;44308;50.810;0.284;2022-08-23T17:11:54;22.30;99.90
58517;DHT22;44308;50.810;0.284;2022-08-23T17:14:25;22.40;99.90
58517;DHT22;44308;50.810;0.284;2022-08-23T17:16:50;22.40;99.90
58517;DHT22;44308;50.810;0.284;2022-08-23T17:19:16;22.20;99.90
58517;DHT22;44308;50.810;0.284;2022-08-23T17:21:42;22.10;99.90
58517;DHT22;44308;50.810;0.284;2022-08-23T17:24:12;22.10;99.90
58517;DHT22;44308;50.810;0.284;2022-08-23T17:26:37;22.00;99.90
58517;DHT22;44308;50.810;0.284;2022-08-23T17:29:03;21.90;99.90
58517;DHT22;44308;50.810;0.284;2022-08-23T17:31:30;21.80;99.90
58517;DHT22;44308;50.810;0.284;2022-08-23T17:36:47;21.70;99.90
58517;DHT22;44308;50.810;0.284;2022-08-23T17:39:17;21.50;99.90
58517;DHT22;44308;50.810;0.284;2022-08-23T17:41:43;21.40;99.90
58517;DHT22;44308;50.810;0.284;2022-08-23T17:44:12;21.30;99.90
58517;DHT22;44308;50.810;0.284;2022-08-23T17:46:40;21.40;99.90
58517;DHT22;44308;50.810;0.284;2022-08-23T17:49:07;21.30;99.90
58517;DHT22;44308;50.810;0.284;2022-08-23T17:51:37;21.20;99.90